sensor_id;sensor_type;location;lat;lon;timestamp;pressure;altitude;pressure_sealevel;temperature;humidity
37878;BME280;23715;53.652;8.516;2023-04-04T00:04:28;103362.25;;;3.29;100.00
37878;BME280;23715;53.652;8.516;2023-04-04T00:09:29;103360.56;;;3.23;100.00
37878;BME280;23715;53.652;8.516;2023-04-04T00:14:29;103360.69;;;3.14;100.00
37878;BME280;23715;53.652;8.516;2023-04-04T00:19:30;103355.00;;;3.10;100.00
37878;BME280;23715;53.652;8.516;2023-04-04T00:24:30;103346.69;;;3.01;100.00
37878;BME280;23715;53.652;8.516;2023-04-04T00:29:30;103344.52;;;2.98;100.00
37878;BME280;23715;53.652;8.516;2023-04-04T00:34:32;103338.27;;;2.70;100.00
37878;BME280;23715;53.652;8.516;2023-04-04T00:39:34;103334.58;;;2.80;100.00
37878;BME280;23715;53.652;8.516;2023-04-04T00:44:35;103339.92;;;2.42;100.00
37878;BME280;23715;53.652;8.516;2023-04-04T00:49:35;103340.83;;;2.00;100.00
37878;BME280;23715;53.652;8.516;2023-04-04T00:54:35;103337.14;;;2.15;100.00
37878;BME280;23715;53.652;8.516;2023-04-04T00:59:35;103342.39;;;2.18;100.00
37878;BME280;23715;53.652;8.516;2023-04-04T01:04:36;103331.92;;;2.47;100.00
37878;BME280;23715;53.652;8.516;2023-04-04T01:09:37;103334.20;;;2.41;100.00
37878;BME280;23715;53.652;8.516;2023-04-04T01:14:37;103329.31;;;2.41;100.00
37878;BME280;23715;53.652;8.516;2023-04-04T01:19:47;103317.17;;;2.18;100.00
37878;BME280;23715;53.652;8.516;2023-04-04T01:24:50;103318.36;;;2.32;100.00
37878;BME280;23715;53.652;8.516;2023-04-04T01:29:51;103314.08;;;1.74;100.00
37878;BME280;23715;53.652;8.516;2023-04-04T01:40:19;103303.14;;;1.61;100.00
37878;BME280;23715;53.652;8.516;2023-04-04T01:45:21;103301.88;;;2.01;100.00
37878;BME280;23715;53.652;8.516;2023-04-04T01:50:23;103300.78;;;1.81;100.00
37878;BME280;23715;53.652;8.516;2023-04-04T01:55:24;103304.36;;;1.77;100.00
37878;BME280;23715;53.652;8.516;2023-04-04T02:00:24;103298.28;;;2.06;100.00
37878;BME280;23715;53.652;8.516;2023-04-04T02:05:24;103295.16;;;2.08;100.00
37878;BME280;23715;53.652;8.516;2023-04-04T02:10:24;103303.30;;;1.91;100.00
37878;BME280;23715;53.652;8.516;2023-04-04T02:15:25;103300.56;;;1.99;100.00
37878;BME280;23715;53.652;8.516;2023-04-04T02:20:25;103300.78;;;1.81;100.00
37878;BME280;23715;53.652;8.516;2023-04-04T02:25:25;103305.80;;;1.61;100.00
37878;BME280;23715;53.652;8.516;2023-04-04T02:30:25;103300.08;;;1.60;100.00
37878;BME280;23715;53.652;8.516;2023-04-04T02:35:25;103301.49;;;1.48;100.00
37878;BME280;23715;53.652;8.516;2023-04-04T02:40:26;103294.69;;;1.71;100.00
37878;BME280;23715;53.652;8.516;2023-04-04T02:45:26;103281.52;;;1.60;100.00
37878;BME280;23715;53.652;8.516;2023-04-04T02:50:30;103275.41;;;1.52;100.00
37878;BME280;23715;53.652;8.516;2023-04-04T02:55:31;103269.91;;;1.70;100.00
37878;BME280;23715;53.652;8.516;2023-04-04T03:00:32;103256.38;;;1.54;100.00
37878;BME280;23715;53.652;8.516;2023-04-04T03:05:32;103255.69;;;1.78;100.00
37878;BME280;23715;53.652;8.516;2023-04-04T03:10:33;103256.16;;;1.75;100.00
37878;BME280;23715;53.652;8.516;2023-04-04T03:15:35;103253.97;;;1.73;100.00
37878;BME280;23715;53.652;8.516;2023-04-04T03:20:35;103260.13;;;1.28;100.00
37878;BME280;23715;53.652;8.516;2023-04-04T03:25:35;103255.34;;;1.22;100.00
37878;BME280;23715;53.652;8.516;2023-04-04T03:30:37;103259.51;;;0.92;100.00
37878;BME280;23715;53.652;8.516;2023-04-04T03:35:38;103254.81;;;1.31;100.00
37878;BME280;23715;53.652;8.516;2023-04-04T03:40:39;103261.38;;;1.38;100.00
37878;BME280;23715;53.652;8.516;2023-04-04T03:45:41;103263.31;;;1.15;100.00
37878;BME280;23715;53.652;8.516;2023-04-04T03:50:42;103271.19;;;1.28;100.00
37878;BME280;23715;53.652;8.516;2023-04-04T03:55:42;103278.05;;;0.95;100.00
37878;BME280;23715;53.652;8.516;2023-04-04T04:00:42;103278.27;;;1.27;100.00
37878;BME280;23715;53.652;8.516;2023-04-04T04:05:42;103262.23;;;1.43;100.00
37878;BME280;23715;53.652;8.516;2023-04-04T04:10:43;103262.97;;;1.55;100.00
37878;BME280;23715;53.652;8.516;2023-04-04T04:15:43;103259.82;;;1.64;100.00
37878;BME280;23715;53.652;8.516;2023-04-04T04:20:45;103263.03;;;1.51;100.00
37878;BME280;23715;53.652;8.516;2023-04-04T04:25:46;103266.15;;;1.47;100.00
37878;BME280;23715;53.652;8.516;2023-04-04T04:30:49;103268.67;;;1.09;100.00
37878;BME280;23715;53.652;8.516;2023-04-04T04:35:51;103266.69;;;1.34;100.00
37878;BME280;23715;53.652;8.516;2023-04-04T04:40:52;103276.66;;;1.05;100.00
37878;BME280;23715;53.652;8.516;2023-04-04T04:45:54;103276.41;;;0.76;100.00
37878;BME280;23715;53.652;8.516;2023-04-04T04:50:54;103277.79;;;0.62;100.00
37878;BME280;23715;53.652;8.516;2023-04-04T04:55:56;103283.95;;;0.67;100.00
37878;BME280;23715;53.652;8.516;2023-04-04T05:00:57;103276.92;;;0.62;100.00
37878;BME280;23715;53.652;8.516;2023-04-04T05:05:59;103282.89;;;0.97;100.00
37878;BME280;23715;53.652;8.516;2023-04-04T05:10:59;103272.58;;;1.19;100.00
37878;BME280;23715;53.652;8.516;2023-04-04T05:16:00;103270.33;;;1.23;100.00
37878;BME280;23715;53.652;8.516;2023-04-04T05:21:02;103261.45;;;1.28;100.00
37878;BME280;23715;53.652;8.516;2023-04-04T05:26:05;103260.60;;;1.23;100.00
37878;BME280;23715;53.652;8.516;2023-04-04T05:31:07;103266.22;;;1.40;100.00
37878;BME280;23715;53.652;8.516;2023-04-04T05:36:09;103258.20;;;1.46;100.00
37878;BME280;23715;53.652;8.516;2023-04-04T05:41:14;103275.68;;;1.20;100.00
37878;BME280;23715;53.652;8.516;2023-04-04T05:46:14;103279.25;;;1.14;100.00
37878;BME280;23715;53.652;8.516;2023-04-04T05:51:16;103290.44;;;0.87;100.00
37878;BME280;23715;53.652;8.516;2023-04-04T05:56:22;103284.00;;;0.58;100.00
37878;BME280;23715;53.652;8.516;2023-04-04T06:01:25;103282.22;;;0.62;100.00
37878;BME280;23715;53.652;8.516;2023-04-04T06:06:27;103272.28;;;1.01;100.00
37878;BME280;23715;53.652;8.516;2023-04-04T06:11:27;103275.11;;;1.32;100.00
37878;BME280;23715;53.652;8.516;2023-04-04T06:16:30;103282.83;;;1.62;100.00
37878;BME280;23715;53.652;8.516;2023-04-04T06:21:32;103275.67;;;1.70;100.00
37878;BME280;23715;53.652;8.516;2023-04-04T06:26:33;103272.47;;;1.80;100.00
37878;BME280;23715;53.652;8.516;2023-04-04T06:31:35;103264.02;;;1.85;100.00
37878;BME280;23715;53.652;8.516;2023-04-04T06:36:39;103266.62;;;1.89;100.00
37878;BME280;23715;53.652;8.516;2023-04-04T06:41:40;103272.59;;;2.10;100.00
37878;BME280;23715;53.652;8.516;2023-04-04T06:46:40;103270.95;;;2.36;100.00
37878;BME280;23715;53.652;8.516;2023-04-04T06:51:41;103269.28;;;2.64;100.00
37878;BME280;23715;53.652;8.516;2023-04-04T06:56:45;103274.38;;;2.78;100.00
37878;BME280;23715;53.652;8.516;2023-04-04T07:01:46;103269.19;;;3.00;100.00
37878;BME280;23715;53.652;8.516;2023-04-04T07:06:46;103268.02;;;2.88;100.00
37878;BME280;23715;53.652;8.516;2023-04-04T07:11:48;103261.75;;;2.92;100.00
37878;BME280;23715;53.652;8.516;2023-04-04T07:16:50;103256.02;;;3.20;100.00
37878;BME280;23715;53.652;8.516;2023-04-04T07:21:51;103250.37;;;3.40;100.00
37878;BME280;23715;53.652;8.516;2023-04-04T07:26:56;103240.47;;;3.48;100.00
37878;BME280;23715;53.652;8.516;2023-04-04T07:31:56;103230.41;;;3.88;100.00
37878;BME280;23715;53.652;8.516;2023-04-04T07:36:56;103232.39;;;4.22;100.00
37878;BME280;23715;53.652;8.516;2023-04-04T07:41:59;103223.17;;;4.38;100.00
37878;BME280;23715;53.652;8.516;2023-04-04T07:46:59;103219.17;;;4.77;100.00
37878;BME280;23715;53.652;8.516;2023-04-04T07:51:59;103214.73;;;4.96;100.00
37878;BME280;23715;53.652;8.516;2023-04-04T07:57:01;103209.30;;;5.35;100.00
37878;BME280;23715;53.652;8.516;2023-04-04T08:02:04;103196.98;;;5.47;100.00
37878;BME280;23715;53.652;8.516;2023-04-04T08:07:06;103193.69;;;5.19;100.00
37878;BME280;23715;53.652;8.516;2023-04-04T08:12:06;103188.44;;;5.51;100.00
37878;BME280;23715;53.652;8.516;2023-04-04T08:17:06;103190.11;;;5.37;100.00
37878;BME280;23715;53.652;8.516;2023-04-04T08:22:09;103193.75;;;5.67;100.00
37878;BME280;23715;53.652;8.516;2023-04-04T08:27:09;103192.52;;;5.64;100.00
37878;BME280;23715;53.652;8.516;2023-04-04T08:32:09;103196.06;;;5.81;100.00
37878;BME280;23715;53.652;8.516;2023-04-04T08:37:10;103190.88;;;6.08;100.00
37878;BME280;23715;53.652;8.516;2023-04-04T08:42:10;103188.02;;;6.29;100.00
37878;BME280;23715;53.652;8.516;2023-04-04T08:47:13;103179.02;;;6.16;100.00
37878;BME280;23715;53.652;8.516;2023-04-04T08:52:16;103171.09;;;6.56;100.00
37878;BME280;23715;53.652;8.516;2023-04-04T08:57:21;103169.03;;;6.38;100.00
37878;BME280;23715;53.652;8.516;2023-04-04T09:02:28;103158.44;;;6.76;100.00
37878;BME280;23715;53.652;8.516;2023-04-04T09:07:28;103151.17;;;7.20;100.00
37878;BME280;23715;53.652;8.516;2023-04-04T09:12:31;103137.16;;;7.50;100.00
37878;BME280;23715;53.652;8.516;2023-04-04T09:17:33;103140.61;;;7.66;100.00
37878;BME280;23715;53.652;8.516;2023-04-04T09:22:37;103142.88;;;7.28;100.00
37878;BME280;23715;53.652;8.516;2023-04-04T09:27:39;103155.37;;;7.02;100.00
37878;BME280;23715;53.652;8.516;2023-04-04T09:32:40;103203.60;;;7.64;100.00
37878;BME280;23715;53.652;8.516;2023-04-04T09:37:41;103146.79;;;7.31;100.00
37878;BME280;23715;53.652;8.516;2023-04-04T09:42:41;103148.00;;;7.34;100.00
37878;BME280;23715;53.652;8.516;2023-04-04T09:47:42;103154.12;;;7.37;100.00
37878;BME280;23715;53.652;8.516;2023-04-04T09:52:43;103142.19;;;7.71;100.00
37878;BME280;23715;53.652;8.516;2023-04-04T09:57:45;103138.64;;;7.94;100.00
37878;BME280;23715;53.652;8.516;2023-04-04T10:02:48;103140.27;;;7.75;100.00
37878;BME280;23715;53.652;8.516;2023-04-04T10:07:48;103141.75;;;7.47;100.00
37878;BME280;23715;53.652;8.516;2023-04-04T10:12:50;103141.09;;;7.77;100.00
37878;BME280;23715;53.652;8.516;2023-04-04T10:17:52;103140.70;;;7.51;100.00
37878;BME280;23715;53.652;8.516;2023-04-04T10:22:53;103136.62;;;7.89;100.00
37878;BME280;23715;53.652;8.516;2023-04-04T10:27:55;103138.82;;;8.01;100.00
37878;BME280;23715;53.652;8.516;2023-04-04T10:33:06;103127.90;;;8.42;100.00
37878;BME280;23715;53.652;8.516;2023-04-04T10:38:10;103132.13;;;7.90;100.00
37878;BME280;23715;53.652;8.516;2023-04-04T10:43:11;103132.30;;;8.09;100.00
37878;BME280;23715;53.652;8.516;2023-04-04T10:48:11;103126.81;;;8.00;96.81
37878;BME280;23715;53.652;8.516;2023-04-04T10:53:12;103121.77;;;7.69;99.49
37878;BME280;23715;53.652;8.516;2023-04-04T10:58:13;103101.12;;;8.18;97.80
37878;BME280;23715;53.652;8.516;2023-04-04T11:03:14;103098.80;;;7.85;100.00
37878;BME280;23715;53.652;8.516;2023-04-04T11:08:21;103094.37;;;7.49;100.00
37878;BME280;23715;53.652;8.516;2023-04-04T11:13:33;103098.09;;;7.45;100.00
37878;BME280;23715;53.652;8.516;2023-04-04T11:28:48;103092.88;;;7.28;100.00
37878;BME280;23715;53.652;8.516;2023-04-04T11:33:57;103079.02;;;7.42;100.00
37878;BME280;23715;53.652;8.516;2023-04-04T11:39:03;103081.22;;;7.31;100.00
37878;BME280;23715;53.652;8.516;2023-04-04T11:44:07;103072.23;;;6.95;100.00
37878;BME280;23715;53.652;8.516;2023-04-04T11:49:05;103062.43;;;7.44;100.00
37878;BME280;23715;53.652;8.516;2023-04-04T11:54:14;103080.20;;;6.43;100.00
37878;BME280;23715;53.652;8.516;2023-04-04T11:59:19;103062.64;;;7.01;100.00
37878;BME280;23715;53.652;8.516;2023-04-04T12:04:19;103049.94;;;6.94;100.00
37878;BME280;23715;53.652;8.516;2023-04-04T12:09:22;103045.38;;;7.70;100.00
37878;BME280;23715;53.652;8.516;2023-04-04T12:14:23;103032.12;;;8.11;100.00
37878;BME280;23715;53.652;8.516;2023-04-04T12:19:28;103025.69;;;8.05;100.00
37878;BME280;23715;53.652;8.516;2023-04-04T12:24:29;103046.22;;;6.60;100.00
37878;BME280;23715;53.652;8.516;2023-04-04T12:29:31;103028.78;;;7.00;100.00
37878;BME280;23715;53.652;8.516;2023-04-04T12:34:41;103024.64;;;7.63;100.00
37878;BME280;23715;53.652;8.516;2023-04-04T12:39:48;103008.14;;;7.86;100.00
37878;BME280;23715;53.652;8.516;2023-04-04T12:44:56;102994.50;;;8.25;100.00
37878;BME280;23715;53.652;8.516;2023-04-04T12:49:57;102987.32;;;8.15;100.00
37878;BME280;23715;53.652;8.516;2023-04-04T12:55:07;103006.80;;;7.29;100.00
37878;BME280;23715;53.652;8.516;2023-04-04T13:00:08;102987.62;;;7.97;100.00
37878;BME280;23715;53.652;8.516;2023-04-04T13:05:09;102971.06;;;8.52;100.00
37878;BME280;23715;53.652;8.516;2023-04-04T13:10:13;102981.36;;;8.08;100.00
37878;BME280;23715;53.652;8.516;2023-04-04T13:15:14;102979.50;;;7.98;100.00
37878;BME280;23715;53.652;8.516;2023-04-04T13:20:16;102965.50;;;8.24;98.26
37878;BME280;23715;53.652;8.516;2023-04-04T13:25:17;102950.73;;;8.56;92.39
37878;BME280;23715;53.652;8.516;2023-04-04T13:30:18;102940.95;;;8.66;97.52
37878;BME280;23715;53.652;8.516;2023-04-04T13:35:18;102938.65;;;8.67;89.79
37878;BME280;23715;53.652;8.516;2023-04-04T13:40:19;102926.59;;;8.77;93.58
37878;BME280;23715;53.652;8.516;2023-04-04T13:45:19;102927.58;;;8.74;91.65
37878;BME280;23715;53.652;8.516;2023-04-04T13:50:20;102933.19;;;8.17;93.67
37878;BME280;23715;53.652;8.516;2023-04-04T13:55:20;102919.69;;;7.98;94.64
37878;BME280;23715;53.652;8.516;2023-04-04T14:00:21;102918.97;;;8.25;96.67
37878;BME280;23715;53.652;8.516;2023-04-04T14:05:21;102905.88;;;8.50;100.00
37878;BME280;23715;53.652;8.516;2023-04-04T14:10:22;102890.72;;;8.59;100.00
37878;BME280;23715;53.652;8.516;2023-04-04T14:15:22;102887.69;;;8.77;100.00
37878;BME280;23715;53.652;8.516;2023-04-04T14:20:22;102887.49;;;8.61;96.46
37878;BME280;23715;53.652;8.516;2023-04-04T14:25:24;102883.44;;;8.92;100.00
37878;BME280;23715;53.652;8.516;2023-04-04T14:30:24;102879.59;;;8.97;98.65
37878;BME280;23715;53.652;8.516;2023-04-04T14:35:24;102876.56;;;8.95;97.01
37878;BME280;23715;53.652;8.516;2023-04-04T14:40:27;102874.88;;;8.73;99.61
37878;BME280;23715;53.652;8.516;2023-04-04T14:45:26;102868.69;;;8.82;100.00
37878;BME280;23715;53.652;8.516;2023-04-04T14:50:27;102877.11;;;8.93;100.00
37878;BME280;23715;53.652;8.516;2023-04-04T14:55:27;102863.98;;;8.87;98.08
37878;BME280;23715;53.652;8.516;2023-04-04T15:00:27;102852.70;;;8.89;98.35
37878;BME280;23715;53.652;8.516;2023-04-04T15:05:28;102842.81;;;9.18;100.00
37878;BME280;23715;53.652;8.516;2023-04-04T15:10:28;102842.81;;;9.18;100.00
37878;BME280;23715;53.652;8.516;2023-04-04T15:15:28;102852.52;;;8.83;100.00
37878;BME280;23715;53.652;8.516;2023-04-04T15:20:30;102844.58;;;8.71;100.00
37878;BME280;23715;53.652;8.516;2023-04-04T15:25:31;102834.78;;;8.89;100.00
37878;BME280;23715;53.652;8.516;2023-04-04T15:30:31;102838.44;;;8.78;100.00
37878;BME280;23715;53.652;8.516;2023-04-04T15:35:32;102847.83;;;8.38;100.00
37878;BME280;23715;53.652;8.516;2023-04-04T15:40:32;102838.44;;;8.38;100.00
37878;BME280;23715;53.652;8.516;2023-04-04T15:45:34;102844.19;;;7.78;100.00
37878;BME280;23715;53.652;8.516;2023-04-04T15:50:34;102842.23;;;7.81;100.00
37878;BME280;23715;53.652;8.516;2023-04-04T15:55:35;102838.23;;;8.02;100.00
37878;BME280;23715;53.652;8.516;2023-04-04T16:00:36;102831.45;;;7.73;100.00
37878;BME280;23715;53.652;8.516;2023-04-04T16:05:36;102833.14;;;7.96;100.00
37878;BME280;23715;53.652;8.516;2023-04-04T16:10:37;102831.95;;;7.60;100.00
37878;BME280;23715;53.652;8.516;2023-04-04T16:15:38;102824.22;;;7.85;100.00
37878;BME280;23715;53.652;8.516;2023-04-04T16:20:38;102824.81;;;7.81;100.00
37878;BME280;23715;53.652;8.516;2023-04-04T16:25:40;102829.37;;;7.79;100.00
37878;BME280;23715;53.652;8.516;2023-04-04T16:30:41;102838.62;;;7.72;100.00
37878;BME280;23715;53.652;8.516;2023-04-04T16:35:41;102834.22;;;7.92;100.00
37878;BME280;23715;53.652;8.516;2023-04-04T16:40:41;102829.87;;;8.20;100.00
37878;BME280;23715;53.652;8.516;2023-04-04T16:45:42;102826.50;;;8.35;100.00
37878;BME280;23715;53.652;8.516;2023-04-04T16:50:42;102827.47;;;8.14;100.00
37878;BME280;23715;53.652;8.516;2023-04-04T16:55:42;102809.44;;;8.48;100.00
37878;BME280;23715;53.652;8.516;2023-04-04T17:00:43;102808.79;;;8.62;100.00
37878;BME280;23715;53.652;8.516;2023-04-04T17:05:45;102804.88;;;8.69;100.00
37878;BME280;23715;53.652;8.516;2023-04-04T17:10:45;102804.34;;;8.61;100.00
37878;BME280;23715;53.652;8.516;2023-04-04T17:15:46;102806.94;;;8.33;100.00
37878;BME280;23715;53.652;8.516;2023-04-04T17:20:46;102812.02;;;8.39;100.00
37878;BME280;23715;53.652;8.516;2023-04-04T17:25:49;102806.88;;;8.25;100.00
37878;BME280;23715;53.652;8.516;2023-04-04T17:30:50;102806.70;;;8.09;100.00
37878;BME280;23715;53.652;8.516;2023-04-04T17:35:49;102802.67;;;8.09;100.00
37878;BME280;23715;53.652;8.516;2023-04-04T17:40:50;102796.90;;;8.08;100.00
37878;BME280;23715;53.652;8.516;2023-04-04T17:45:51;102802.12;;;8.00;100.00
37878;BME280;23715;53.652;8.516;2023-04-04T17:50:51;102793.82;;;7.96;100.00
37878;BME280;23715;53.652;8.516;2023-04-04T17:55:51;102801.66;;;7.91;100.00
37878;BME280;23715;53.652;8.516;2023-04-04T18:00:52;102804.87;;;7.89;100.00
37878;BME280;23715;53.652;8.516;2023-04-04T18:05:55;102808.53;;;7.55;100.00
37878;BME280;23715;53.652;8.516;2023-04-04T18:10:56;102805.65;;;7.50;100.00
37878;BME280;23715;53.652;8.516;2023-04-04T18:15:56;102806.78;;;7.54;100.00
37878;BME280;23715;53.652;8.516;2023-04-04T18:20:57;102804.09;;;7.44;100.00
37878;BME280;23715;53.652;8.516;2023-04-04T18:25:59;102801.21;;;7.49;100.00
37878;BME280;23715;53.652;8.516;2023-04-04T18:30:59;102807.42;;;7.39;100.00
37878;BME280;23715;53.652;8.516;2023-04-04T18:36:02;102811.62;;;7.12;100.00
37878;BME280;23715;53.652;8.516;2023-04-04T18:41:02;102807.58;;;7.02;100.00
37878;BME280;23715;53.652;8.516;2023-04-04T18:46:06;102811.56;;;6.68;100.00
37878;BME280;23715;53.652;8.516;2023-04-04T18:51:07;102813.28;;;6.69;100.00
37878;BME280;23715;53.652;8.516;2023-04-04T18:56:08;102809.33;;;6.68;100.00
37878;BME280;23715;53.652;8.516;2023-04-04T19:01:10;102802.13;;;6.58;100.00
37878;BME280;23715;53.652;8.516;2023-04-04T19:06:11;102809.52;;;6.63;100.00
37878;BME280;23715;53.652;8.516;2023-04-04T19:11:10;102818.92;;;6.50;100.00
37878;BME280;23715;53.652;8.516;2023-04-04T19:16:11;102819.22;;;6.54;100.00
37878;BME280;23715;53.652;8.516;2023-04-04T19:21:11;102811.33;;;6.51;100.00
37878;BME280;23715;53.652;8.516;2023-04-04T19:26:12;102819.41;;;6.24;100.00
37878;BME280;23715;53.652;8.516;2023-04-04T19:31:19;102827.58;;;6.08;100.00
37878;BME280;23715;53.652;8.516;2023-04-04T19:36:19;102827.58;;;6.08;100.00
37878;BME280;23715;53.652;8.516;2023-04-04T19:41:29;102820.78;;;5.71;100.00
37878;BME280;23715;53.652;8.516;2023-04-04T19:46:31;102812.38;;;5.83;100.00
37878;BME280;23715;53.652;8.516;2023-04-04T19:51:35;102818.11;;;5.84;100.00
37878;BME280;23715;53.652;8.516;2023-04-04T19:56:36;102820.13;;;5.77;100.00
37878;BME280;23715;53.652;8.516;2023-04-04T20:01:37;102823.58;;;5.54;100.00
37878;BME280;23715;53.652;8.516;2023-04-04T20:06:38;102819.44;;;5.31;100.00
37878;BME280;23715;53.652;8.516;2023-04-04T20:11:39;102824.81;;;5.29;100.00
37878;BME280;23715;53.652;8.516;2023-04-04T20:16:41;102827.97;;;5.42;100.00
37878;BME280;23715;53.652;8.516;2023-04-04T20:21:40;102823.22;;;5.23;100.00
37878;BME280;23715;53.652;8.516;2023-04-04T20:31:49;102827.39;;;5.04;100.00
37878;BME280;23715;53.652;8.516;2023-04-04T20:36:50;102822.56;;;5.02;100.00
37878;BME280;23715;53.652;8.516;2023-04-04T20:41:50;102814.22;;;4.99;100.00
37878;BME280;23715;53.652;8.516;2023-04-04T20:46:51;102819.81;;;5.05;100.00
37878;BME280;23715;53.652;8.516;2023-04-04T20:51:52;102817.52;;;4.93;100.00
37878;BME280;23715;53.652;8.516;2023-04-04T20:56:52;102814.25;;;4.98;100.00
37878;BME280;23715;53.652;8.516;2023-04-04T21:02:00;102814.34;;;4.95;100.00
37878;BME280;23715;53.652;8.516;2023-04-04T21:06:57;102812.92;;;4.98;100.00
37878;BME280;23715;53.652;8.516;2023-04-04T21:11:58;102804.52;;;5.10;100.00
37878;BME280;23715;53.652;8.516;2023-04-04T21:16:59;102809.17;;;5.18;100.00
37878;BME280;23715;53.652;8.516;2023-04-04T21:22:00;102806.23;;;5.41;100.00
37878;BME280;23715;53.652;8.516;2023-04-04T21:27:00;102806.16;;;5.42;100.00
37878;BME280;23715;53.652;8.516;2023-04-04T21:32:03;102818.06;;;4.74;100.00
37878;BME280;23715;53.652;8.516;2023-04-04T21:37:05;102820.98;;;4.19;100.00
37878;BME280;23715;53.652;8.516;2023-04-04T21:42:07;102815.58;;;4.22;100.00
37878;BME280;23715;53.652;8.516;2023-04-04T21:47:09;102820.58;;;4.18;100.00
37878;BME280;23715;53.652;8.516;2023-04-04T21:52:09;102809.53;;;4.32;100.00
37878;BME280;23715;53.652;8.516;2023-04-04T21:57:11;102806.94;;;4.45;100.00
37878;BME280;23715;53.652;8.516;2023-04-04T22:02:11;102810.65;;;4.39;100.00
37878;BME280;23715;53.652;8.516;2023-04-04T22:07:11;102806.84;;;4.33;100.00
37878;BME280;23715;53.652;8.516;2023-04-04T22:12:11;102796.69;;;4.31;100.00
37878;BME280;23715;53.652;8.516;2023-04-04T22:17:12;102797.55;;;4.32;100.00
37878;BME280;23715;53.652;8.516;2023-04-04T22:22:14;102797.91;;;4.03;100.00
37878;BME280;23715;53.652;8.516;2023-04-04T22:27:15;102792.60;;;3.50;100.00
37878;BME280;23715;53.652;8.516;2023-04-04T22:32:15;102789.45;;;3.35;100.00
37878;BME280;23715;53.652;8.516;2023-04-04T22:37:18;102793.32;;;3.39;100.00
37878;BME280;23715;53.652;8.516;2023-04-04T22:42:19;102794.98;;;3.43;100.00
37878;BME280;23715;53.652;8.516;2023-04-04T22:47:21;102797.58;;;3.46;100.00
37878;BME280;23715;53.652;8.516;2023-04-04T22:52:23;102799.44;;;3.43;100.00
37878;BME280;23715;53.652;8.516;2023-04-04T22:57:24;102786.70;;;3.38;100.00
37878;BME280;23715;53.652;8.516;2023-04-04T23:02:25;102790.69;;;3.38;100.00
37878;BME280;23715;53.652;8.516;2023-04-04T23:07:28;102791.00;;;3.43;100.00
37878;BME280;23715;53.652;8.516;2023-04-04T23:12:29;102783.92;;;3.24;100.00
37878;BME280;23715;53.652;8.516;2023-04-04T23:17:30;102787.16;;;3.00;100.00
37878;BME280;23715;53.652;8.516;2023-04-04T23:22:30;102781.55;;;2.53;100.00
37878;BME280;23715;53.652;8.516;2023-04-04T23:27:31;102789.44;;;2.58;100.00
37878;BME280;23715;53.652;8.516;2023-04-04T23:32:31;102779.49;;;2.47;100.00
37878;BME280;23715;53.652;8.516;2023-04-04T23:37:31;102780.73;;;2.50;100.00
37878;BME280;23715;53.652;8.516;2023-04-04T23:42:32;102779.84;;;2.51;100.00
37878;BME280;23715;53.652;8.516;2023-04-04T23:47:34;102777.42;;;2.60;100.00
37878;BME280;23715;53.652;8.516;2023-04-04T23:52:35;102766.59;;;2.49;100.00
37878;BME280;23715;53.652;8.516;2023-04-04T23:57:36;102768.51;;;2.83;100.00
